createdAt,value
2018-05-08T00:01:32.217Z,14.00
2018-05-08T00:04:04.961Z,14.00
2018-05-08T00:06:37.373Z,13.90
2018-05-08T00:09:10.092Z,13.90
2018-05-08T00:11:42.469Z,13.90
2018-05-08T00:14:15.095Z,13.90
2018-05-08T00:16:47.554Z,13.80
2018-05-08T00:19:20.232Z,13.80
2018-05-08T00:21:52.752Z,13.80
2018-05-08T00:24:26.192Z,13.70
2018-05-08T00:26:58.580Z,13.70
2018-05-08T00:29:30.999Z,13.70
2018-05-08T00:32:03.807Z,13.60
2018-05-08T00:34:37.103Z,13.50
2018-05-08T00:37:09.544Z,13.50
2018-05-08T00:39:42.004Z,13.40
2018-05-08T00:42:15.411Z,13.30
2018-05-08T00:44:48.722Z,13.30
2018-05-08T00:47:21.097Z,13.30
2018-05-08T00:49:53.484Z,13.30
2018-05-08T00:52:26.042Z,13.30
2018-05-08T00:55:04.755Z,13.30
2018-05-08T00:57:37.159Z,13.30
2018-05-08T01:00:09.935Z,13.30
2018-05-08T01:02:42.489Z,13.30
2018-05-08T01:05:15.617Z,13.40
2018-05-08T01:07:48.829Z,13.40
2018-05-08T01:10:21.248Z,13.30
2018-05-08T01:12:53.681Z,13.30
2018-05-08T01:15:26.069Z,13.30
2018-05-08T01:17:59.932Z,13.20
2018-05-08T01:20:32.417Z,13.20
2018-05-08T01:23:05.212Z,13.20
2018-05-08T01:25:37.575Z,13.20
2018-05-08T01:28:09.990Z,13.00
2018-05-08T01:30:42.402Z,12.90
2018-05-08T01:33:15.478Z,12.70
2018-05-08T01:35:48.711Z,12.70
2018-05-08T01:38:21.214Z,12.60
2018-05-08T01:40:53.797Z,12.70
2018-05-08T01:43:26.257Z,12.60
2018-05-08T01:45:59.348Z,12.60
2018-05-08T01:48:32.628Z,12.60
2018-05-08T01:51:05.921Z,12.60
2018-05-08T01:53:38.355Z,12.60
2018-05-08T01:56:10.792Z,12.70
2018-05-08T01:58:43.232Z,12.70
2018-05-08T02:01:16.347Z,12.90
2018-05-08T02:03:48.849Z,12.80
2018-05-08T02:06:21.277Z,12.90
2018-05-08T02:08:53.803Z,13.00
2018-05-08T02:11:26.349Z,13.20
2018-05-08T02:13:58.802Z,13.30
2018-05-08T02:16:31.154Z,13.40
2018-05-08T02:19:04.297Z,13.50
2018-05-08T02:21:36.694Z,13.50
2018-05-08T02:24:09.031Z,13.60
2018-05-08T02:26:42.202Z,13.80
2018-05-08T02:29:14.804Z,13.70
2018-05-08T02:31:47.418Z,13.90
2018-05-08T02:34:19.738Z,13.90
2018-05-08T02:36:52.328Z,14.00
2018-05-08T02:39:24.821Z,14.00
2018-05-08T02:41:57.466Z,14.00
2018-05-08T02:44:30.705Z,14.10
2018-05-08T02:47:03.708Z,14.00
2018-05-08T02:49:36.217Z,14.10
2018-05-08T02:52:08.624Z,14.10
2018-05-08T02:54:41.094Z,14.10
2018-05-08T02:57:13.600Z,14.10
2018-05-08T02:59:46.044Z,14.00
2018-05-08T03:02:18.431Z,14.00
2018-05-08T03:04:50.895Z,14.00
2018-05-08T03:07:24.839Z,14.00
2018-05-08T03:09:57.251Z,14.10
2018-05-08T03:12:30.416Z,14.20
2018-05-08T03:15:02.941Z,14.20
2018-05-08T03:17:35.504Z,14.30
2018-05-08T03:20:08.315Z,14.40
2018-05-08T03:22:40.847Z,14.50
2018-05-08T03:25:13.212Z,14.60
2018-05-08T03:27:46.484Z,14.70
2018-05-08T03:30:19.137Z,14.70
2018-05-08T03:32:51.721Z,14.80
2018-05-08T03:35:24.132Z,14.80
2018-05-08T03:37:56.455Z,14.80
2018-05-08T03:40:28.947Z,14.80
2018-05-08T03:43:01.572Z,14.70
2018-05-08T03:45:34.054Z,14.70
2018-05-08T03:48:06.393Z,14.60
2018-05-08T03:50:39.676Z,14.60
2018-05-08T03:53:12.380Z,14.60
2018-05-08T03:55:44.787Z,14.60
2018-05-08T03:58:17.277Z,14.60
2018-05-08T04:01:02.236Z,14.60
2018-05-08T04:03:47.663Z,14.60
2018-05-08T04:06:32.568Z,14.60
2018-05-08T04:09:05.238Z,14.60
2018-05-08T04:11:37.823Z,14.50
2018-05-08T04:14:10.372Z,14.50
2018-05-08T04:16:42.903Z,14.40
2018-05-08T04:19:15.352Z,14.40
2018-05-08T04:21:47.938Z,14.40
2018-05-08T04:24:21.072Z,14.40
2018-05-08T04:26:54.318Z,14.30
2018-05-08T04:29:26.798Z,14.30
2018-05-08T04:31:59.918Z,14.30
2018-05-08T04:34:33.128Z,14.30
2018-05-08T04:37:05.749Z,14.30
2018-05-08T04:39:38.471Z,14.30
2018-05-08T04:42:11.444Z,14.30
2018-05-08T04:44:43.884Z,14.40
2018-05-08T04:47:16.392Z,14.40
2018-05-08T04:49:49.397Z,14.50
2018-05-08T04:52:21.709Z,14.50
2018-05-08T04:54:54.887Z,14.50
2018-05-08T04:57:27.383Z,14.50
2018-05-08T04:59:59.945Z,14.60
2018-05-08T05:02:32.425Z,14.70
2018-05-08T05:05:04.930Z,14.80
2018-05-08T05:07:37.293Z,14.90
2018-05-08T05:10:10.607Z,15.10
2018-05-08T05:12:43.293Z,15.00
2018-05-08T05:15:15.898Z,15.10
2018-05-08T05:17:48.699Z,15.20
2018-05-08T05:20:21.255Z,15.30
2018-05-08T05:22:53.680Z,15.50
2018-05-08T05:25:26.106Z,15.60
2018-05-08T05:27:58.724Z,15.70
2018-05-08T05:30:31.142Z,15.80
2018-05-08T05:33:04.500Z,16.10
2018-05-08T05:35:36.918Z,16.00
2018-05-08T05:38:09.388Z,16.10
2018-05-08T05:40:42.073Z,16.30
2018-05-08T05:43:15.375Z,16.50
2018-05-08T05:45:47.890Z,16.50
2018-05-08T05:48:20.433Z,16.60
2018-05-08T05:50:53.025Z,16.70
2018-05-08T05:53:25.498Z,16.70
2018-05-08T05:55:58.096Z,16.80
2018-05-08T05:58:31.196Z,17.00
2018-05-08T06:01:04.376Z,17.10
2018-05-08T06:03:36.888Z,17.00
2018-05-08T06:06:09.393Z,17.10
2018-05-08T06:08:41.971Z,17.20
2018-05-08T06:11:14.413Z,17.30
2018-05-08T06:13:46.851Z,17.40
2018-05-08T06:16:20.019Z,17.50
2018-05-08T06:18:52.542Z,17.50
2018-05-08T06:21:25.800Z,17.70
2018-05-08T06:23:58.240Z,17.70
2018-05-08T06:26:31.620Z,17.90
2018-05-08T06:29:04.137Z,17.90
2018-05-08T06:31:36.857Z,18.00
2018-05-08T06:34:09.217Z,18.10
2018-05-08T06:36:41.659Z,18.10
2018-05-08T06:39:14.345Z,18.20
2018-05-08T06:41:46.903Z,18.30
2018-05-08T06:44:20.498Z,18.50
2018-05-08T06:46:53.113Z,18.40
2018-05-08T06:49:25.521Z,18.50
2018-05-08T06:51:58.130Z,18.60
2018-05-08T06:54:30.730Z,18.60
2018-05-08T06:57:03.243Z,18.70
2018-05-08T06:59:36.034Z,18.80
2018-05-08T07:02:09.441Z,18.90
2018-05-08T07:04:42.890Z,19.00
2018-05-08T07:07:15.263Z,19.00
2018-05-08T07:09:47.824Z,19.10
2018-05-08T07:12:20.645Z,19.20
2018-05-08T07:14:53.280Z,19.30
2018-05-08T07:17:26.600Z,19.40
2018-05-08T07:19:59.930Z,19.50
2018-05-08T07:22:33.203Z,19.50
2018-05-08T07:25:05.756Z,19.50
2018-05-08T07:27:38.202Z,19.50
2018-05-08T07:30:11.156Z,19.60
2018-05-08T07:32:43.765Z,19.70
2018-05-08T07:35:16.386Z,19.80
2018-05-08T07:37:48.769Z,20.00
2018-05-08T07:40:22.080Z,20.10
2018-05-08T07:42:55.185Z,20.30
2018-05-08T07:45:27.728Z,20.20
2018-05-08T07:48:00.900Z,20.50
2018-05-08T07:50:34.085Z,20.60
2018-05-08T07:53:06.481Z,20.60
2018-05-08T07:55:38.935Z,20.60
2018-05-08T07:58:11.520Z,20.70
2018-05-08T08:00:43.961Z,20.70
2018-05-08T08:03:16.571Z,20.90
2018-05-08T08:05:49.004Z,20.90
2018-05-08T08:08:21.527Z,21.00
2018-05-08T08:10:53.887Z,21.10
2018-05-08T08:13:27.953Z,21.20
2018-05-08T08:16:01.064Z,21.40
2018-05-08T08:18:33.537Z,21.40
2018-05-08T08:21:06.300Z,21.40
2018-05-08T08:23:39.607Z,21.50
2018-05-08T08:26:12.216Z,21.50
2018-05-08T08:28:45.478Z,21.70
2018-05-08T08:31:18.729Z,21.70
2018-05-08T08:33:51.178Z,21.60
2018-05-08T08:36:23.841Z,21.70
2018-05-08T08:38:56.563Z,21.80
2018-05-08T08:41:29.213Z,21.90
2018-05-08T08:44:02.780Z,22.10
2018-05-08T08:46:36.804Z,22.30
2018-05-08T08:49:09.223Z,22.30
2018-05-08T08:51:41.900Z,22.40
2018-05-08T08:54:15.159Z,22.50
2018-05-08T08:56:47.635Z,22.50
2018-05-08T08:59:20.173Z,22.60
2018-05-08T09:01:52.738Z,22.70
2018-05-08T09:04:25.215Z,22.80
2018-05-08T09:06:57.603Z,22.80
2018-05-08T09:09:30.666Z,22.90
2018-05-08T09:12:03.224Z,23.00
2018-05-08T09:14:35.984Z,23.00
2018-05-08T09:17:08.620Z,23.00
2018-05-08T09:19:41.456Z,23.10
2018-05-08T09:22:13.979Z,23.20
2018-05-08T09:24:46.501Z,23.30
2018-05-08T09:27:19.034Z,23.40
2018-05-08T09:29:51.535Z,23.50
2018-05-08T09:32:23.995Z,23.60
2018-05-08T09:34:56.490Z,23.70
2018-05-08T09:37:29.703Z,24.00
2018-05-08T09:40:02.081Z,24.00
2018-05-08T09:42:34.484Z,24.10
2018-05-08T09:45:06.935Z,24.20
2018-05-08T09:47:39.350Z,24.30
2018-05-08T09:50:11.954Z,24.30
2018-05-08T09:52:44.402Z,24.40
2018-05-08T09:55:17.109Z,24.50
2018-05-08T09:57:49.495Z,24.60
2018-05-08T10:00:22.004Z,24.60
2018-05-08T10:02:54.637Z,24.70
2018-05-08T10:05:26.991Z,24.70
2018-05-08T10:07:59.404Z,24.80
2018-05-08T10:10:32.720Z,25.10
2018-05-08T10:13:05.378Z,25.00
2018-05-08T10:15:37.760Z,25.00
2018-05-08T10:18:10.131Z,25.10
2018-05-08T10:20:42.550Z,25.10
2018-05-08T10:23:15.840Z,25.20
2018-05-08T10:25:48.339Z,25.20
2018-05-08T10:28:21.569Z,25.20
2018-05-08T10:30:53.969Z,25.20
2018-05-08T10:33:26.412Z,25.20
2018-05-08T10:35:58.840Z,25.20
2018-05-08T10:38:31.494Z,25.20
2018-05-08T10:41:04.140Z,25.30
2018-05-08T10:43:36.721Z,25.40
2018-05-08T10:46:09.305Z,25.40
2018-05-08T10:48:42.662Z,25.40
2018-05-08T10:51:15.246Z,25.30
2018-05-08T10:53:47.828Z,25.40
2018-05-08T10:56:20.406Z,25.40
2018-05-08T10:58:53.780Z,25.30
2018-05-08T11:01:27.915Z,25.30
2018-05-08T11:04:01.375Z,25.30
2018-05-08T11:06:33.910Z,25.30
2018-05-08T11:09:06.490Z,25.30
2018-05-08T11:11:39.190Z,25.30
2018-05-08T11:14:12.688Z,25.40
2018-05-08T11:16:45.444Z,25.40
2018-05-08T11:19:18.031Z,25.40
2018-05-08T11:21:50.834Z,25.30
2018-05-08T11:24:23.205Z,25.30
2018-05-08T11:26:55.857Z,25.30
2018-05-08T11:29:28.237Z,25.40
2018-05-08T11:32:01.380Z,25.40
2018-05-08T11:34:33.848Z,25.40
2018-05-08T11:37:06.511Z,25.40
2018-05-08T11:39:39.434Z,25.40
2018-05-08T11:42:11.882Z,25.40
2018-05-08T11:44:44.530Z,25.40
2018-05-08T11:47:17.239Z,25.40
2018-05-08T11:49:49.895Z,25.30
2018-05-08T11:52:22.265Z,25.30
2018-05-08T11:54:54.675Z,25.40
2018-05-08T11:57:27.201Z,25.40
2018-05-08T11:59:59.586Z,25.40
2018-05-08T12:02:32.061Z,25.50
2018-05-08T12:05:04.496Z,25.50
2018-05-08T12:07:36.902Z,25.50
2018-05-08T12:10:09.373Z,25.60
2018-05-08T12:12:42.309Z,25.60
2018-05-08T12:15:14.797Z,25.70
2018-05-08T12:17:48.038Z,25.70
2018-05-08T12:20:20.433Z,25.70
2018-05-08T12:22:52.872Z,25.80
2018-05-08T12:25:27.028Z,26.00
2018-05-08T12:27:59.653Z,26.00
2018-05-08T12:30:32.858Z,26.30
2018-05-08T12:33:05.707Z,26.10
2018-05-08T12:35:38.226Z,26.30
2018-05-08T12:38:10.925Z,26.30
2018-05-08T12:40:44.327Z,26.30
2018-05-08T12:43:16.735Z,26.30
2018-05-08T12:45:49.173Z,26.30
2018-05-08T12:48:22.805Z,26.60
2018-05-08T12:50:55.225Z,26.60
2018-05-08T12:53:27.889Z,26.90
2018-05-08T12:56:00.583Z,27.20
2018-05-08T12:58:34.645Z,27.50
2018-05-08T13:01:08.015Z,27.50
2018-05-08T13:03:40.516Z,27.50
2018-05-08T13:06:12.987Z,27.50
2018-05-08T13:08:46.047Z,27.60
2018-05-08T13:11:18.427Z,27.70
2018-05-08T13:13:50.850Z,27.70
2018-05-08T13:16:23.978Z,27.90
2018-05-08T13:18:56.451Z,27.90
2018-05-08T13:21:29.782Z,28.30
2018-05-08T13:24:02.332Z,28.20
2018-05-08T13:26:35.091Z,28.50
2018-05-08T13:29:08.412Z,28.70
2018-05-08T13:31:41.658Z,28.60
2018-05-08T13:34:14.173Z,28.50
2018-05-08T13:36:47.212Z,28.60
2018-05-08T13:39:20.397Z,28.80
2018-05-08T13:41:52.819Z,28.70
2018-05-08T13:44:25.392Z,28.80
2018-05-08T13:46:58.002Z,28.90
2018-05-08T13:49:30.606Z,29.00
2018-05-08T13:52:03.065Z,29.00
2018-05-08T13:54:35.867Z,29.20
2018-05-08T13:57:08.238Z,29.40
2018-05-08T13:59:40.598Z,29.50
2018-05-08T14:02:13.327Z,29.40
2018-05-08T14:04:45.856Z,29.20
2018-05-08T14:07:19.074Z,29.00
2018-05-08T14:09:51.578Z,29.00
2018-05-08T14:12:24.070Z,28.90
2018-05-08T14:14:56.717Z,28.70
2018-05-08T14:17:29.478Z,28.60
2018-05-08T14:20:02.171Z,28.40
2018-05-08T14:22:34.712Z,28.40
2018-05-08T14:25:07.340Z,28.40
2018-05-08T14:27:39.788Z,28.30
2018-05-08T14:30:12.446Z,28.30
2018-05-08T14:32:45.063Z,28.30
2018-05-08T14:35:17.546Z,28.40
2018-05-08T14:37:51.055Z,28.70
2018-05-08T14:40:23.646Z,28.70
2018-05-08T14:42:56.322Z,28.90
2018-05-08T14:45:28.757Z,29.00
2018-05-08T14:48:01.252Z,29.20
2018-05-08T14:50:33.901Z,29.40
2018-05-08T14:53:06.360Z,29.60
2018-05-08T14:55:38.944Z,29.70
2018-05-08T14:58:11.431Z,29.90
2018-05-08T15:00:43.968Z,30.10
2018-05-08T15:03:17.263Z,30.80
2018-05-08T15:05:49.905Z,30.80
2018-05-08T15:08:22.565Z,31.60
2018-05-08T15:10:55.316Z,32.10
2018-05-08T15:13:28.010Z,32.10
2018-05-08T15:16:00.470Z,32.10
2018-05-08T15:18:33.142Z,32.20
2018-05-08T15:21:05.787Z,32.70
2018-05-08T15:23:38.421Z,33.60
2018-05-08T15:26:11.857Z,35.00
2018-05-08T15:28:44.308Z,35.00
2018-05-08T15:31:17.001Z,35.10
2018-05-08T15:33:49.572Z,34.80
2018-05-08T15:36:22.386Z,34.60
2018-05-08T15:38:55.690Z,33.80
2018-05-08T15:41:28.495Z,33.80
2018-05-08T15:44:01.075Z,33.60
2018-05-08T15:46:33.542Z,33.60
2018-05-08T15:49:06.216Z,33.90
2018-05-08T15:51:38.835Z,33.70
2018-05-08T15:54:11.275Z,33.60
2018-05-08T15:56:43.980Z,33.50
2018-05-08T15:59:16.605Z,33.20
2018-05-08T16:01:49.110Z,32.70
2018-05-08T16:04:22.352Z,32.20
2018-05-08T16:06:56.019Z,32.50
2018-05-08T16:09:29.517Z,32.50
2018-05-08T16:12:02.272Z,32.80
2018-05-08T16:14:34.872Z,33.10
2018-05-08T16:17:08.213Z,33.90
2018-05-08T16:19:40.938Z,33.90
2018-05-08T16:22:13.330Z,34.40
2018-05-08T16:24:45.771Z,35.40
2018-05-08T16:27:18.425Z,36.10
2018-05-08T16:29:51.092Z,36.80
2018-05-08T16:32:23.546Z,37.60
2018-05-08T16:34:56.525Z,38.50
2018-05-08T16:37:30.017Z,39.90
2018-05-08T16:40:02.794Z,39.80
2018-05-08T16:42:35.588Z,40.00
2018-05-08T16:45:08.771Z,39.10
2018-05-08T16:47:41.974Z,38.30
2018-05-08T16:50:14.337Z,38.30
2018-05-08T16:52:47.007Z,37.30
2018-05-08T16:55:19.579Z,35.50
2018-05-08T16:57:52.936Z,32.80
2018-05-08T17:00:25.610Z,32.70
2018-05-08T17:02:58.254Z,31.60
2018-05-08T17:05:30.802Z,30.60
2018-05-08T17:08:03.555Z,29.80
2018-05-08T17:10:36.224Z,28.90
2018-05-08T17:13:08.835Z,28.40
2018-05-08T17:15:41.521Z,27.80
2018-05-08T17:18:15.009Z,26.90
2018-05-08T17:20:47.707Z,26.80
2018-05-08T17:23:20.351Z,26.60
2018-05-08T17:25:53.252Z,26.20
2018-05-08T17:28:25.817Z,26.10
2018-05-08T17:30:58.662Z,25.90
2018-05-08T17:33:32.314Z,25.50
2018-05-08T17:36:04.871Z,25.40
2018-05-08T17:38:37.737Z,25.30
2018-05-08T17:41:10.567Z,25.10
2018-05-08T17:43:43.072Z,25.00
2018-05-08T17:46:15.962Z,24.80
2018-05-08T17:48:48.609Z,24.70
2018-05-08T17:51:21.615Z,24.60
2018-05-08T17:53:54.157Z,24.50
2018-05-08T17:56:27.577Z,24.30
2018-05-08T17:59:01.114Z,24.20
2018-05-08T18:01:33.765Z,24.20
2018-05-08T18:04:07.265Z,24.00
2018-05-08T18:06:39.956Z,23.90
2018-05-08T18:09:12.674Z,23.90
2018-05-08T18:11:45.331Z,23.80
2018-05-08T18:14:17.854Z,23.70
2018-05-08T18:16:50.469Z,23.60
2018-05-08T18:19:23.186Z,23.50
2018-05-08T18:21:56.629Z,23.20
2018-05-08T18:24:29.318Z,23.20
2018-05-08T18:27:05.176Z,23.10
2018-05-08T18:29:37.700Z,23.00
2018-05-08T18:32:10.363Z,22.90
2018-05-08T18:34:43.128Z,22.80
2018-05-08T18:37:15.778Z,22.60
2018-05-08T18:39:49.307Z,22.60
2018-05-08T18:42:22.034Z,22.40
2018-05-08T18:44:54.787Z,22.30
2018-05-08T18:47:27.356Z,22.20
2018-05-08T18:50:00.282Z,22.10
2018-05-08T18:52:33.510Z,22.00
2018-05-08T18:55:07.275Z,21.80
2018-05-08T18:57:40.042Z,21.70
2018-05-08T19:00:18.656Z,21.60
2018-05-08T19:02:51.256Z,21.60
2018-05-08T19:05:24.136Z,21.50
2018-05-08T19:07:56.736Z,21.40
2018-05-08T19:10:29.618Z,21.30
2018-05-08T19:13:02.295Z,21.20
2018-05-08T19:15:41.075Z,21.10
2018-05-08T19:18:14.104Z,20.90
2018-05-08T19:20:46.958Z,20.70
2018-05-08T19:23:19.698Z,20.50
2018-05-08T19:25:52.288Z,20.30
2018-05-08T19:28:30.867Z,20.10
2018-05-08T19:31:03.998Z,20.00
2018-05-08T19:33:36.974Z,19.80
2018-05-08T19:36:16.603Z,19.70
2018-05-08T19:38:49.189Z,19.60
2018-05-08T19:41:21.846Z,19.60
2018-05-08T19:43:54.505Z,19.70
2018-05-08T19:46:27.424Z,19.70
2018-05-08T19:49:00.308Z,19.70
2018-05-08T19:51:33.610Z,19.80
2018-05-08T19:54:06.685Z,19.80
2018-05-08T19:56:40.091Z,19.90
2018-05-08T19:59:13.278Z,19.90
2018-05-08T20:01:45.920Z,19.90
2018-05-08T20:04:18.486Z,19.90
2018-05-08T20:06:51.366Z,19.90
2018-05-08T20:09:24.108Z,20.00
2018-05-08T20:11:56.872Z,20.00
2018-05-08T20:14:29.649Z,20.00
2018-05-08T20:17:02.169Z,20.10
2018-05-08T20:19:35.139Z,20.10
2018-05-08T20:22:07.845Z,20.10
2018-05-08T20:24:40.681Z,20.00
2018-05-08T20:27:13.340Z,20.00
2018-05-08T20:29:46.261Z,20.00
2018-05-08T20:32:19.599Z,20.00
2018-05-08T20:34:52.091Z,20.00
2018-05-08T20:37:24.732Z,20.00
2018-05-08T20:39:57.439Z,20.00
2018-05-08T20:42:29.996Z,19.90
2018-05-08T20:45:02.547Z,19.90
2018-05-08T20:47:35.865Z,19.90
2018-05-08T20:50:08.492Z,19.90
2018-05-08T20:52:41.788Z,19.90
2018-05-08T20:55:15.148Z,19.90
2018-05-08T20:57:47.861Z,19.90
2018-05-08T21:00:20.418Z,19.90
2018-05-08T21:02:53.114Z,19.90
2018-05-08T21:05:25.910Z,19.90
2018-05-08T21:07:58.521Z,19.90
2018-05-08T21:10:31.199Z,19.80
2018-05-08T21:13:03.853Z,19.80
2018-05-08T21:15:36.415Z,19.80
2018-05-08T21:18:08.999Z,19.70
2018-05-08T21:20:41.819Z,19.70
2018-05-08T21:23:14.401Z,19.70
2018-05-08T21:25:47.065Z,19.60
2018-05-08T21:28:26.132Z,19.60
2018-05-08T21:31:04.709Z,19.60
2018-05-08T21:33:37.159Z,19.60
2018-05-08T21:36:09.851Z,19.60
2018-05-08T21:38:42.388Z,19.50
2018-05-08T21:41:15.052Z,19.50
2018-05-08T21:43:48.480Z,19.50
2018-05-08T21:46:21.963Z,19.50
2018-05-08T21:48:55.149Z,19.50
2018-05-08T21:51:28.498Z,19.50
2018-05-08T21:54:01.221Z,19.40
2018-05-08T21:56:33.941Z,19.50
2018-05-08T21:59:06.781Z,19.40
2018-05-08T22:01:39.236Z,19.40
2018-05-08T22:04:11.907Z,19.40
2018-05-08T22:06:44.573Z,19.30
2018-05-08T22:09:17.266Z,19.20
2018-05-08T22:11:50.006Z,19.20
2018-05-08T22:14:22.652Z,19.20
2018-05-08T22:16:55.065Z,19.10
2018-05-08T22:19:27.871Z,19.10
2018-05-08T22:22:00.297Z,19.10
2018-05-08T22:24:32.788Z,19.00
2018-05-08T22:27:05.320Z,19.00
2018-05-08T22:29:38.509Z,18.90
2018-05-08T22:32:11.002Z,18.90
2018-05-08T22:34:43.566Z,18.90
2018-05-08T22:37:17.066Z,18.80
2018-05-08T22:39:49.719Z,18.80
2018-05-08T22:42:22.980Z,18.70
2018-05-08T22:44:55.483Z,18.60
2018-05-08T22:47:27.906Z,18.60
2018-05-08T22:50:00.320Z,18.60
2018-05-08T22:52:32.847Z,18.50
2018-05-08T22:55:05.358Z,18.40
2018-05-08T22:57:37.924Z,18.40
2018-05-08T23:00:10.365Z,18.30
2018-05-08T23:02:42.994Z,18.30
2018-05-08T23:05:16.500Z,18.20
2018-05-08T23:07:48.949Z,18.20
2018-05-08T23:10:21.391Z,18.10
2018-05-08T23:12:53.835Z,18.10
2018-05-08T23:15:26.510Z,18.00
2018-05-08T23:17:59.224Z,18.00
2018-05-08T23:20:31.860Z,18.00
2018-05-08T23:23:04.312Z,17.90
2018-05-08T23:25:37.090Z,17.80
2018-05-08T23:28:09.584Z,17.80
2018-05-08T23:30:42.213Z,17.70
2018-05-08T23:33:15.421Z,17.60
2018-05-08T23:35:48.827Z,17.60
2018-05-08T23:38:21.496Z,17.60
2018-05-08T23:40:54.134Z,17.50
2018-05-08T23:43:26.759Z,17.50
2018-05-08T23:45:59.394Z,17.50
2018-05-08T23:48:32.021Z,17.40
2018-05-08T23:51:04.639Z,17.40
2018-05-08T23:53:37.815Z,17.30
2018-05-08T23:56:10.414Z,17.30
2018-05-08T23:58:43.116Z,17.30
